sensor_id;sensor_type;location;lat;lon;timestamp;temperature;humidity
79024;DHT22;70306;44.764;37.688;2023-08-06T00:00:18;29.77;48.44
79024;DHT22;70306;44.764;37.688;2023-08-06T00:01:19;29.76;48.24
79024;DHT22;70306;44.764;37.688;2023-08-06T00:02:22;29.70;47.39
79024;DHT22;70306;44.764;37.688;2023-08-06T00:03:24;29.67;47.50
79024;DHT22;70306;44.764;37.688;2023-08-06T00:04:25;29.67;48.95
79024;DHT22;70306;44.764;37.688;2023-08-06T00:05:27;29.66;47.98
79024;DHT22;70306;44.764;37.688;2023-08-06T00:06:28;29.65;47.77
79024;DHT22;70306;44.764;37.688;2023-08-06T00:07:30;29.70;47.84
79024;DHT22;70306;44.764;37.688;2023-08-06T00:08:32;29.66;47.72
79024;DHT22;70306;44.764;37.688;2023-08-06T00:09:33;29.65;47.82
79024;DHT22;70306;44.764;37.688;2023-08-06T00:10:35;29.65;48.66
79024;DHT22;70306;44.764;37.688;2023-08-06T00:11:36;29.66;49.07
79024;DHT22;70306;44.764;37.688;2023-08-06T00:12:38;29.69;48.82
79024;DHT22;70306;44.764;37.688;2023-08-06T00:13:39;29.69;50.49
79024;DHT22;70306;44.764;37.688;2023-08-06T00:14:41;29.72;49.95
79024;DHT22;70306;44.764;37.688;2023-08-06T00:15:43;29.69;49.45
79024;DHT22;70306;44.764;37.688;2023-08-06T00:16:45;29.69;50.69
79024;DHT22;70306;44.764;37.688;2023-08-06T00:17:47;29.72;49.77
79024;DHT22;70306;44.764;37.688;2023-08-06T00:18:49;29.70;48.80
79024;DHT22;70306;44.764;37.688;2023-08-06T00:19:50;29.65;49.65
79024;DHT22;70306;44.764;37.688;2023-08-06T00:20:52;29.66;49.02
79024;DHT22;70306;44.764;37.688;2023-08-06T00:21:54;29.67;48.35
79024;DHT22;70306;44.764;37.688;2023-08-06T00:22:55;29.67;47.02
79024;DHT22;70306;44.764;37.688;2023-08-06T00:23:57;29.62;47.98
79024;DHT22;70306;44.764;37.688;2023-08-06T00:24:59;29.54;48.23
79024;DHT22;70306;44.764;37.688;2023-08-06T00:26:00;29.55;47.36
79024;DHT22;70306;44.764;37.688;2023-08-06T00:27:02;29.51;49.00
79024;DHT22;70306;44.764;37.688;2023-08-06T00:28:04;29.51;48.75
79024;DHT22;70306;44.764;37.688;2023-08-06T00:29:06;29.48;49.84
79024;DHT22;70306;44.764;37.688;2023-08-06T00:30:08;29.49;50.05
79024;DHT22;70306;44.764;37.688;2023-08-06T00:31:09;29.51;51.89
79024;DHT22;70306;44.764;37.688;2023-08-06T00:32:17;29.54;51.98
79024;DHT22;70306;44.764;37.688;2023-08-06T00:33:18;29.54;52.66
79024;DHT22;70306;44.764;37.688;2023-08-06T00:34:21;29.45;49.42
79024;DHT22;70306;44.764;37.688;2023-08-06T00:35:23;29.34;49.07
79024;DHT22;70306;44.764;37.688;2023-08-06T00:36:24;29.31;48.32
79024;DHT22;70306;44.764;37.688;2023-08-06T00:37:26;29.27;47.76
79024;DHT22;70306;44.764;37.688;2023-08-06T00:38:28;29.20;49.93
79024;DHT22;70306;44.764;37.688;2023-08-06T00:39:29;29.10;51.37
79024;DHT22;70306;44.764;37.688;2023-08-06T00:40:31;29.12;51.54
79024;DHT22;70306;44.764;37.688;2023-08-06T00:41:32;29.03;49.16
79024;DHT22;70306;44.764;37.688;2023-08-06T00:42:34;28.99;49.12
79024;DHT22;70306;44.764;37.688;2023-08-06T00:43:36;28.99;49.53
79024;DHT22;70306;44.764;37.688;2023-08-06T00:44:38;28.97;48.97
79024;DHT22;70306;44.764;37.688;2023-08-06T00:45:40;29.02;49.76
79024;DHT22;70306;44.764;37.688;2023-08-06T00:46:42;29.04;51.06
79024;DHT22;70306;44.764;37.688;2023-08-06T00:47:45;29.07;50.87
79024;DHT22;70306;44.764;37.688;2023-08-06T00:48:47;29.11;51.23
79024;DHT22;70306;44.764;37.688;2023-08-06T00:49:49;29.15;52.61
79024;DHT22;70306;44.764;37.688;2023-08-06T00:50:51;29.11;52.83
79024;DHT22;70306;44.764;37.688;2023-08-06T00:51:53;29.12;52.73
79024;DHT22;70306;44.764;37.688;2023-08-06T00:52:55;29.12;51.97
79024;DHT22;70306;44.764;37.688;2023-08-06T00:53:56;29.06;52.14
79024;DHT22;70306;44.764;37.688;2023-08-06T00:54:59;29.02;52.68
79024;DHT22;70306;44.764;37.688;2023-08-06T00:56:01;29.00;51.35
79024;DHT22;70306;44.764;37.688;2023-08-06T00:57:04;28.99;53.07
79024;DHT22;70306;44.764;37.688;2023-08-06T00:58:07;28.97;52.17
79024;DHT22;70306;44.764;37.688;2023-08-06T00:59:10;28.89;51.89
79024;DHT22;70306;44.764;37.688;2023-08-06T01:00:12;28.86;52.86
79024;DHT22;70306;44.764;37.688;2023-08-06T01:01:14;28.83;51.99
79024;DHT22;70306;44.764;37.688;2023-08-06T01:02:16;28.82;52.45
79024;DHT22;70306;44.764;37.688;2023-08-06T01:03:17;28.82;52.38
79024;DHT22;70306;44.764;37.688;2023-08-06T01:04:19;28.80;51.82
79024;DHT22;70306;44.764;37.688;2023-08-06T01:05:22;28.77;52.54
79024;DHT22;70306;44.764;37.688;2023-08-06T01:06:43;28.76;53.60
79024;DHT22;70306;44.764;37.688;2023-08-06T01:09:31;28.60;53.20
79024;DHT22;70306;44.764;37.688;2023-08-06T01:14:52;28.56;53.86
79024;DHT22;70306;44.764;37.688;2023-08-06T01:15:55;28.49;53.83
79024;DHT22;70306;44.764;37.688;2023-08-06T01:16:58;28.47;54.10
79024;DHT22;70306;44.764;37.688;2023-08-06T01:18:01;28.49;53.86
79024;DHT22;70306;44.764;37.688;2023-08-06T01:19:03;28.48;52.16
79024;DHT22;70306;44.764;37.688;2023-08-06T01:20:05;28.48;53.26
79024;DHT22;70306;44.764;37.688;2023-08-06T01:21:07;28.48;52.35
79024;DHT22;70306;44.764;37.688;2023-08-06T01:22:08;28.48;53.69
79024;DHT22;70306;44.764;37.688;2023-08-06T01:23:10;28.49;54.08
79024;DHT22;70306;44.764;37.688;2023-08-06T01:24:12;28.48;52.19
79024;DHT22;70306;44.764;37.688;2023-08-06T01:25:16;28.45;52.21
79024;DHT22;70306;44.764;37.688;2023-08-06T01:27:49;28.49;52.02
79024;DHT22;70306;44.764;37.688;2023-08-06T01:28:59;28.47;52.14
79024;DHT22;70306;44.764;37.688;2023-08-06T01:30:12;28.45;53.30
79024;DHT22;70306;44.764;37.688;2023-08-06T01:31:22;28.49;54.64
79024;DHT22;70306;44.764;37.688;2023-08-06T01:32:34;28.48;54.45
79024;DHT22;70306;44.764;37.688;2023-08-06T01:33:38;28.47;54.62
79024;DHT22;70306;44.764;37.688;2023-08-06T01:34:44;28.44;53.42
79024;DHT22;70306;44.764;37.688;2023-08-06T01:35:49;28.40;54.42
79024;DHT22;70306;44.764;37.688;2023-08-06T01:36:51;28.40;55.05
79024;DHT22;70306;44.764;37.688;2023-08-06T01:37:53;28.40;54.28
79024;DHT22;70306;44.764;37.688;2023-08-06T01:38:55;28.32;55.47
79024;DHT22;70306;44.764;37.688;2023-08-06T01:39:59;28.32;54.26
79024;DHT22;70306;44.764;37.688;2023-08-06T01:41:01;28.27;54.38
79024;DHT22;70306;44.764;37.688;2023-08-06T01:42:03;28.18;54.38
79024;DHT22;70306;44.764;37.688;2023-08-06T01:43:05;28.14;55.21
79024;DHT22;70306;44.764;37.688;2023-08-06T01:44:07;28.14;55.60
79024;DHT22;70306;44.764;37.688;2023-08-06T01:45:09;28.11;55.34
79024;DHT22;70306;44.764;37.688;2023-08-06T01:46:11;28.10;55.29
79024;DHT22;70306;44.764;37.688;2023-08-06T01:47:12;28.10;55.36
79024;DHT22;70306;44.764;37.688;2023-08-06T01:48:14;28.11;55.79
79024;DHT22;70306;44.764;37.688;2023-08-06T01:49:16;28.06;55.78
79024;DHT22;70306;44.764;37.688;2023-08-06T01:50:17;28.06;55.90
79024;DHT22;70306;44.764;37.688;2023-08-06T01:51:20;28.03;56.04
79024;DHT22;70306;44.764;37.688;2023-08-06T01:52:21;27.96;55.99
79024;DHT22;70306;44.764;37.688;2023-08-06T01:53:23;27.97;56.34
79024;DHT22;70306;44.764;37.688;2023-08-06T01:54:26;27.92;55.96
79024;DHT22;70306;44.764;37.688;2023-08-06T01:55:29;27.85;56.81
79024;DHT22;70306;44.764;37.688;2023-08-06T01:56:33;27.83;57.01
79024;DHT22;70306;44.764;37.688;2023-08-06T01:57:35;27.83;56.12
79024;DHT22;70306;44.764;37.688;2023-08-06T01:58:36;27.80;56.23
79024;DHT22;70306;44.764;37.688;2023-08-06T01:59:38;27.80;57.17
79024;DHT22;70306;44.764;37.688;2023-08-06T02:00:40;27.78;56.34
79024;DHT22;70306;44.764;37.688;2023-08-06T02:01:42;27.79;56.68
79024;DHT22;70306;44.764;37.688;2023-08-06T02:02:43;27.74;56.56
79024;DHT22;70306;44.764;37.688;2023-08-06T02:03:45;27.73;57.56
79024;DHT22;70306;44.764;37.688;2023-08-06T02:04:47;27.73;57.42
79024;DHT22;70306;44.764;37.688;2023-08-06T02:05:48;27.72;57.18
79024;DHT22;70306;44.764;37.688;2023-08-06T02:06:50;27.72;57.05
79024;DHT22;70306;44.764;37.688;2023-08-06T02:07:51;27.73;56.84
79024;DHT22;70306;44.764;37.688;2023-08-06T02:08:53;27.72;57.71
79024;DHT22;70306;44.764;37.688;2023-08-06T02:09:55;27.73;57.32
79024;DHT22;70306;44.764;37.688;2023-08-06T02:10:56;27.72;57.54
79024;DHT22;70306;44.764;37.688;2023-08-06T02:11:59;27.66;57.32
79024;DHT22;70306;44.764;37.688;2023-08-06T02:13:01;27.66;57.32
79024;DHT22;70306;44.764;37.688;2023-08-06T02:14:02;27.70;57.29
79024;DHT22;70306;44.764;37.688;2023-08-06T02:15:04;27.67;57.51
79024;DHT22;70306;44.764;37.688;2023-08-06T02:16:09;27.67;57.22
79024;DHT22;70306;44.764;37.688;2023-08-06T02:17:11;27.66;57.40
79024;DHT22;70306;44.764;37.688;2023-08-06T02:18:13;27.65;57.14
79024;DHT22;70306;44.764;37.688;2023-08-06T02:19:16;27.67;58.08
79024;DHT22;70306;44.764;37.688;2023-08-06T02:20:17;27.66;58.01
79024;DHT22;70306;44.764;37.688;2023-08-06T02:21:19;27.65;57.78
79024;DHT22;70306;44.764;37.688;2023-08-06T02:22:21;27.61;58.29
79024;DHT22;70306;44.764;37.688;2023-08-06T02:23:24;27.61;57.70
79024;DHT22;70306;44.764;37.688;2023-08-06T02:24:26;27.59;57.77
79024;DHT22;70306;44.764;37.688;2023-08-06T02:25:27;27.61;57.88
79024;DHT22;70306;44.764;37.688;2023-08-06T02:26:29;27.61;57.86
79024;DHT22;70306;44.764;37.688;2023-08-06T02:27:31;27.59;57.45
79024;DHT22;70306;44.764;37.688;2023-08-06T02:28:32;27.61;57.64
79024;DHT22;70306;44.764;37.688;2023-08-06T02:29:34;27.59;57.82
79024;DHT22;70306;44.764;37.688;2023-08-06T02:30:35;27.58;58.06
79024;DHT22;70306;44.764;37.688;2023-08-06T02:31:37;27.56;57.61
79024;DHT22;70306;44.764;37.688;2023-08-06T02:32:46;27.55;57.69
79024;DHT22;70306;44.764;37.688;2023-08-06T02:33:47;27.55;57.41
79024;DHT22;70306;44.764;37.688;2023-08-06T02:34:49;27.49;57.74
79024;DHT22;70306;44.764;37.688;2023-08-06T02:35:51;27.49;57.26
79024;DHT22;70306;44.764;37.688;2023-08-06T02:36:52;27.49;58.22
79024;DHT22;70306;44.764;37.688;2023-08-06T02:37:54;27.51;58.45
79024;DHT22;70306;44.764;37.688;2023-08-06T02:38:57;27.49;57.99
79024;DHT22;70306;44.764;37.688;2023-08-06T02:39:58;27.52;57.88
79024;DHT22;70306;44.764;37.688;2023-08-06T02:41:02;27.52;58.50
79024;DHT22;70306;44.764;37.688;2023-08-06T02:42:08;27.48;58.33
79024;DHT22;70306;44.764;37.688;2023-08-06T02:43:10;27.49;59.02
79024;DHT22;70306;44.764;37.688;2023-08-06T02:44:12;27.51;59.70
79024;DHT22;70306;44.764;37.688;2023-08-06T02:45:14;27.52;58.80
79024;DHT22;70306;44.764;37.688;2023-08-06T02:46:16;27.48;59.33
79024;DHT22;70306;44.764;37.688;2023-08-06T02:47:18;27.51;59.10
79024;DHT22;70306;44.764;37.688;2023-08-06T02:48:20;27.52;58.80
79024;DHT22;70306;44.764;37.688;2023-08-06T02:49:22;27.48;58.54
79024;DHT22;70306;44.764;37.688;2023-08-06T02:50:23;27.46;56.66
79024;DHT22;70306;44.764;37.688;2023-08-06T02:51:25;27.49;58.15
79024;DHT22;70306;44.764;37.688;2023-08-06T02:52:27;27.51;58.32
79024;DHT22;70306;44.764;37.688;2023-08-06T02:53:28;27.51;58.70
79024;DHT22;70306;44.764;37.688;2023-08-06T02:54:33;27.56;58.51
79024;DHT22;70306;44.764;37.688;2023-08-06T02:55:37;27.58;58.16
79024;DHT22;70306;44.764;37.688;2023-08-06T02:56:45;27.58;58.02
79024;DHT22;70306;44.764;37.688;2023-08-06T02:57:54;27.56;58.32
79024;DHT22;70306;44.764;37.688;2023-08-06T02:58:56;27.59;57.95
79024;DHT22;70306;44.764;37.688;2023-08-06T03:00:27;27.58;57.81
79024;DHT22;70306;44.764;37.688;2023-08-06T03:01:28;27.59;57.93
79024;DHT22;70306;44.764;37.688;2023-08-06T03:02:35;27.62;58.31
79024;DHT22;70306;44.764;37.688;2023-08-06T03:03:46;27.61;58.14
79024;DHT22;70306;44.764;37.688;2023-08-06T03:04:55;27.63;57.91
79024;DHT22;70306;44.764;37.688;2023-08-06T03:06:00;27.67;57.83
79024;DHT22;70306;44.764;37.688;2023-08-06T03:07:11;27.69;57.53
79024;DHT22;70306;44.764;37.688;2023-08-06T03:08:22;27.67;57.80
79024;DHT22;70306;44.764;37.688;2023-08-06T03:09:25;27.70;57.74
79024;DHT22;70306;44.764;37.688;2023-08-06T03:10:27;27.70;57.71
79024;DHT22;70306;44.764;37.688;2023-08-06T03:11:32;27.72;57.69
79024;DHT22;70306;44.764;37.688;2023-08-06T03:12:39;27.76;57.36
79024;DHT22;70306;44.764;37.688;2023-08-06T03:13:42;27.80;57.49
79024;DHT22;70306;44.764;37.688;2023-08-06T03:14:43;27.80;57.85
79024;DHT22;70306;44.764;37.688;2023-08-06T03:15:57;27.85;56.99
79024;DHT22;70306;44.764;37.688;2023-08-06T03:17:00;27.88;57.30
79024;DHT22;70306;44.764;37.688;2023-08-06T03:18:02;27.93;56.62
79024;DHT22;70306;44.764;37.688;2023-08-06T03:19:03;27.93;55.55
79024;DHT22;70306;44.764;37.688;2023-08-06T03:20:06;27.92;55.81
79024;DHT22;70306;44.764;37.688;2023-08-06T03:21:08;27.94;54.11
79024;DHT22;70306;44.764;37.688;2023-08-06T03:22:10;28.00;55.11
79024;DHT22;70306;44.764;37.688;2023-08-06T03:23:13;28.04;55.36
79024;DHT22;70306;44.764;37.688;2023-08-06T03:24:15;28.08;54.18
79024;DHT22;70306;44.764;37.688;2023-08-06T03:25:18;28.11;54.40
79024;DHT22;70306;44.764;37.688;2023-08-06T03:26:22;28.14;53.60
79024;DHT22;70306;44.764;37.688;2023-08-06T03:27:24;28.20;54.22
79024;DHT22;70306;44.764;37.688;2023-08-06T03:28:27;28.22;53.92
79024;DHT22;70306;44.764;37.688;2023-08-06T03:29:29;28.28;55.02
79024;DHT22;70306;44.764;37.688;2023-08-06T03:30:34;28.37;54.85
79024;DHT22;70306;44.764;37.688;2023-08-06T03:31:36;28.38;55.64
79024;DHT22;70306;44.764;37.688;2023-08-06T03:32:43;28.47;53.90
79024;DHT22;70306;44.764;37.688;2023-08-06T03:33:45;28.45;53.97
79024;DHT22;70306;44.764;37.688;2023-08-06T03:34:51;28.47;53.86
79024;DHT22;70306;44.764;37.688;2023-08-06T03:35:52;28.48;52.55
79024;DHT22;70306;44.764;37.688;2023-08-06T03:36:54;28.49;52.00
79024;DHT22;70306;44.764;37.688;2023-08-06T03:37:56;28.55;52.87
79024;DHT22;70306;44.764;37.688;2023-08-06T03:38:58;28.55;52.10
79024;DHT22;70306;44.764;37.688;2023-08-06T03:39:59;28.58;52.60
79024;DHT22;70306;44.764;37.688;2023-08-06T03:41:01;28.62;52.80
79024;DHT22;70306;44.764;37.688;2023-08-06T03:42:03;28.69;52.88
79024;DHT22;70306;44.764;37.688;2023-08-06T03:43:05;28.76;52.39
79024;DHT22;70306;44.764;37.688;2023-08-06T03:44:06;28.79;52.50
79024;DHT22;70306;44.764;37.688;2023-08-06T03:45:08;28.83;52.82
79024;DHT22;70306;44.764;37.688;2023-08-06T03:46:10;28.89;52.93
79024;DHT22;70306;44.764;37.688;2023-08-06T03:47:12;28.92;52.41
79024;DHT22;70306;44.764;37.688;2023-08-06T03:48:14;28.96;52.54
79024;DHT22;70306;44.764;37.688;2023-08-06T03:49:15;28.99;51.84
79024;DHT22;70306;44.764;37.688;2023-08-06T03:50:17;29.06;51.10
79024;DHT22;70306;44.764;37.688;2023-08-06T03:51:19;29.10;51.31
79024;DHT22;70306;44.764;37.688;2023-08-06T03:52:22;29.11;51.50
79024;DHT22;70306;44.764;37.688;2023-08-06T03:53:24;29.12;51.61
79024;DHT22;70306;44.764;37.688;2023-08-06T03:54:25;29.15;51.11
79024;DHT22;70306;44.764;37.688;2023-08-06T03:55:27;29.17;50.79
79024;DHT22;70306;44.764;37.688;2023-08-06T03:56:29;29.21;50.67
79024;DHT22;70306;44.764;37.688;2023-08-06T03:57:30;29.21;50.72
79024;DHT22;70306;44.764;37.688;2023-08-06T03:58:32;29.27;50.70
79024;DHT22;70306;44.764;37.688;2023-08-06T03:59:34;29.28;49.84
79024;DHT22;70306;44.764;37.688;2023-08-06T04:00:35;29.28;49.84
79024;DHT22;70306;44.764;37.688;2023-08-06T04:01:37;29.34;50.45
79024;DHT22;70306;44.764;37.688;2023-08-06T04:02:39;29.44;50.15
79024;DHT22;70306;44.764;37.688;2023-08-06T04:03:40;29.49;50.03
79024;DHT22;70306;44.764;37.688;2023-08-06T04:04:42;29.52;50.79
79024;DHT22;70306;44.764;37.688;2023-08-06T04:05:44;29.58;49.58
79024;DHT22;70306;44.764;37.688;2023-08-06T04:06:46;29.56;49.58
79024;DHT22;70306;44.764;37.688;2023-08-06T04:07:49;29.63;49.76
79024;DHT22;70306;44.764;37.688;2023-08-06T04:08:51;29.70;49.56
79024;DHT22;70306;44.764;37.688;2023-08-06T04:10:54;29.76;48.92
79024;DHT22;70306;44.764;37.688;2023-08-06T04:11:56;29.82;48.92
79024;DHT22;70306;44.764;37.688;2023-08-06T04:12:59;29.87;48.64
79024;DHT22;70306;44.764;37.688;2023-08-06T04:14:01;29.91;48.77
79024;DHT22;70306;44.764;37.688;2023-08-06T04:15:03;29.97;48.57
79024;DHT22;70306;44.764;37.688;2023-08-06T04:16:07;29.97;47.58
79024;DHT22;70306;44.764;37.688;2023-08-06T04:17:08;30.01;48.48
79024;DHT22;70306;44.764;37.688;2023-08-06T04:18:11;30.08;48.24
79024;DHT22;70306;44.764;37.688;2023-08-06T04:19:12;30.13;47.91
79024;DHT22;70306;44.764;37.688;2023-08-06T04:20:14;30.13;47.83
79024;DHT22;70306;44.764;37.688;2023-08-06T04:21:16;30.14;47.88
79024;DHT22;70306;44.764;37.688;2023-08-06T04:22:18;30.15;47.93
79024;DHT22;70306;44.764;37.688;2023-08-06T04:23:19;30.18;47.87
79024;DHT22;70306;44.764;37.688;2023-08-06T04:24:21;30.25;48.65
79024;DHT22;70306;44.764;37.688;2023-08-06T04:25:23;30.21;47.88
79024;DHT22;70306;44.764;37.688;2023-08-06T04:26:25;30.15;47.68
79024;DHT22;70306;44.764;37.688;2023-08-06T04:27:27;30.17;47.80
79024;DHT22;70306;44.764;37.688;2023-08-06T04:28:30;30.20;47.95
79024;DHT22;70306;44.764;37.688;2023-08-06T04:29:31;30.24;47.19
79024;DHT22;70306;44.764;37.688;2023-08-06T04:30:34;30.28;47.46
79024;DHT22;70306;44.764;37.688;2023-08-06T04:31:37;30.31;47.71
79024;DHT22;70306;44.764;37.688;2023-08-06T04:32:44;30.39;47.76
79024;DHT22;70306;44.764;37.688;2023-08-06T04:33:45;30.46;47.34
79024;DHT22;70306;44.764;37.688;2023-08-06T04:34:49;30.49;47.25
79024;DHT22;70306;44.764;37.688;2023-08-06T04:35:54;30.58;46.25
79024;DHT22;70306;44.764;37.688;2023-08-06T04:36:59;30.56;46.36
79024;DHT22;70306;44.764;37.688;2023-08-06T04:38:01;30.58;47.12
79024;DHT22;70306;44.764;37.688;2023-08-06T04:39:03;30.62;46.53
79024;DHT22;70306;44.764;37.688;2023-08-06T04:40:04;30.65;46.54
79024;DHT22;70306;44.764;37.688;2023-08-06T04:41:06;30.68;46.60
79024;DHT22;70306;44.764;37.688;2023-08-06T04:42:08;30.72;46.38
79024;DHT22;70306;44.764;37.688;2023-08-06T04:43:09;30.75;46.26
79024;DHT22;70306;44.764;37.688;2023-08-06T04:44:11;30.82;46.59
79024;DHT22;70306;44.764;37.688;2023-08-06T04:45:14;30.83;45.99
79024;DHT22;70306;44.764;37.688;2023-08-06T04:46:15;30.86;45.90
79024;DHT22;70306;44.764;37.688;2023-08-06T04:47:17;30.84;46.00
79024;DHT22;70306;44.764;37.688;2023-08-06T04:48:19;30.87;46.04
79024;DHT22;70306;44.764;37.688;2023-08-06T04:49:20;30.88;46.42
79024;DHT22;70306;44.764;37.688;2023-08-06T04:50:22;30.96;46.03
79024;DHT22;70306;44.764;37.688;2023-08-06T04:51:24;31.04;46.05
79024;DHT22;70306;44.764;37.688;2023-08-06T04:52:25;31.07;45.78
79024;DHT22;70306;44.764;37.688;2023-08-06T04:53:29;31.08;45.78
79024;DHT22;70306;44.764;37.688;2023-08-06T04:54:31;31.08;45.89
79024;DHT22;70306;44.764;37.688;2023-08-06T04:55:33;31.12;45.87
79024;DHT22;70306;44.764;37.688;2023-08-06T04:56:34;31.18;45.78
79024;DHT22;70306;44.764;37.688;2023-08-06T04:57:36;31.22;45.24
79024;DHT22;70306;44.764;37.688;2023-08-06T04:58:38;31.24;45.41
79024;DHT22;70306;44.764;37.688;2023-08-06T04:59:39;31.29;45.32
79024;DHT22;70306;44.764;37.688;2023-08-06T05:00:41;31.32;44.67
79024;DHT22;70306;44.764;37.688;2023-08-06T05:01:43;31.35;44.78
79024;DHT22;70306;44.764;37.688;2023-08-06T05:02:44;31.37;45.11
79024;DHT22;70306;44.764;37.688;2023-08-06T05:03:47;31.41;44.47
79024;DHT22;70306;44.764;37.688;2023-08-06T05:04:49;31.52;44.77
79024;DHT22;70306;44.764;37.688;2023-08-06T05:05:50;31.62;45.47
79024;DHT22;70306;44.764;37.688;2023-08-06T05:06:52;31.70;44.56
79024;DHT22;70306;44.764;37.688;2023-08-06T05:07:57;31.77;44.72
79024;DHT22;70306;44.764;37.688;2023-08-06T05:08:59;31.86;45.13
79024;DHT22;70306;44.764;37.688;2023-08-06T05:10:00;31.94;45.29
79024;DHT22;70306;44.764;37.688;2023-08-06T05:11:02;31.97;44.50
79024;DHT22;70306;44.764;37.688;2023-08-06T05:12:04;32.08;44.68
79024;DHT22;70306;44.764;37.688;2023-08-06T05:13:06;32.18;44.15
79024;DHT22;70306;44.764;37.688;2023-08-06T05:14:07;32.23;44.05
79024;DHT22;70306;44.764;37.688;2023-08-06T05:15:09;32.25;43.53
79024;DHT22;70306;44.764;37.688;2023-08-06T05:16:11;32.34;43.16
79024;DHT22;70306;44.764;37.688;2023-08-06T05:17:12;32.38;43.11
79024;DHT22;70306;44.764;37.688;2023-08-06T05:18:14;32.46;42.79
79024;DHT22;70306;44.764;37.688;2023-08-06T05:19:15;32.52;43.08
79024;DHT22;70306;44.764;37.688;2023-08-06T05:20:18;32.60;43.13
79024;DHT22;70306;44.764;37.688;2023-08-06T05:21:21;32.68;43.39
79024;DHT22;70306;44.764;37.688;2023-08-06T05:22:22;32.72;42.63
79024;DHT22;70306;44.764;37.688;2023-08-06T05:23:24;32.77;42.47
79024;DHT22;70306;44.764;37.688;2023-08-06T05:24:25;32.84;42.24
79024;DHT22;70306;44.764;37.688;2023-08-06T05:25:27;32.84;41.69
79024;DHT22;70306;44.764;37.688;2023-08-06T05:26:29;32.83;42.10
79024;DHT22;70306;44.764;37.688;2023-08-06T05:27:30;32.83;41.46
79024;DHT22;70306;44.764;37.688;2023-08-06T05:28:32;32.88;41.94
79024;DHT22;70306;44.764;37.688;2023-08-06T05:29:34;32.94;41.97
79024;DHT22;70306;44.764;37.688;2023-08-06T05:30:39;33.01;41.74
79024;DHT22;70306;44.764;37.688;2023-08-06T05:31:41;33.07;41.27
79024;DHT22;70306;44.764;37.688;2023-08-06T05:32:48;33.11;41.21
79024;DHT22;70306;44.764;37.688;2023-08-06T05:33:49;33.12;41.37
79024;DHT22;70306;44.764;37.688;2023-08-06T05:34:51;33.14;41.16
79024;DHT22;70306;44.764;37.688;2023-08-06T05:35:53;33.12;40.95
79024;DHT22;70306;44.764;37.688;2023-08-06T05:36:54;33.14;41.36
79024;DHT22;70306;44.764;37.688;2023-08-06T05:37:56;33.21;41.37
79024;DHT22;70306;44.764;37.688;2023-08-06T05:38:58;33.31;41.17
79024;DHT22;70306;44.764;37.688;2023-08-06T05:39:59;33.38;40.93
79024;DHT22;70306;44.764;37.688;2023-08-06T05:41:02;33.45;40.67
79024;DHT22;70306;44.764;37.688;2023-08-06T05:42:05;33.49;40.46
79024;DHT22;70306;44.764;37.688;2023-08-06T05:43:07;33.54;40.96
79024;DHT22;70306;44.764;37.688;2023-08-06T05:44:08;33.56;40.54
79024;DHT22;70306;44.764;37.688;2023-08-06T05:45:10;33.59;40.47
79024;DHT22;70306;44.764;37.688;2023-08-06T05:46:11;33.68;40.76
79024;DHT22;70306;44.764;37.688;2023-08-06T05:47:13;33.74;39.71
79024;DHT22;70306;44.764;37.688;2023-08-06T05:48:14;33.76;39.92
79024;DHT22;70306;44.764;37.688;2023-08-06T05:49:16;33.85;40.25
79024;DHT22;70306;44.764;37.688;2023-08-06T05:50:18;33.93;40.03
79024;DHT22;70306;44.764;37.688;2023-08-06T05:51:19;33.98;39.80
79024;DHT22;70306;44.764;37.688;2023-08-06T05:52:21;34.04;39.48
79024;DHT22;70306;44.764;37.688;2023-08-06T05:53:23;34.04;39.15
79024;DHT22;70306;44.764;37.688;2023-08-06T05:54:24;34.06;38.68
79024;DHT22;70306;44.764;37.688;2023-08-06T05:55:26;34.11;39.73
79024;DHT22;70306;44.764;37.688;2023-08-06T05:56:28;34.17;39.53
79024;DHT22;70306;44.764;37.688;2023-08-06T05:57:29;34.23;38.50
79024;DHT22;70306;44.764;37.688;2023-08-06T05:58:31;34.27;39.30
79024;DHT22;70306;44.764;37.688;2023-08-06T05:59:32;34.31;38.98
79024;DHT22;70306;44.764;37.688;2023-08-06T06:00:34;34.35;38.25
79024;DHT22;70306;44.764;37.688;2023-08-06T06:01:36;34.34;38.48
79024;DHT22;70306;44.764;37.688;2023-08-06T06:02:38;34.29;39.57
79024;DHT22;70306;44.764;37.688;2023-08-06T06:03:39;34.32;39.68
79024;DHT22;70306;44.764;37.688;2023-08-06T06:04:41;34.40;39.52
79024;DHT22;70306;44.764;37.688;2023-08-06T06:05:43;34.45;38.11
79024;DHT22;70306;44.764;37.688;2023-08-06T06:06:44;34.52;38.41
79024;DHT22;70306;44.764;37.688;2023-08-06T06:07:46;34.55;38.97
79024;DHT22;70306;44.764;37.688;2023-08-06T06:08:47;34.60;39.19
79024;DHT22;70306;44.764;37.688;2023-08-06T06:09:49;34.66;39.52
79024;DHT22;70306;44.764;37.688;2023-08-06T06:10:50;34.69;39.46
79024;DHT22;70306;44.764;37.688;2023-08-06T06:11:52;34.73;39.28
79024;DHT22;70306;44.764;37.688;2023-08-06T06:12:54;34.80;39.00
79024;DHT22;70306;44.764;37.688;2023-08-06T06:13:55;34.83;38.48
79024;DHT22;70306;44.764;37.688;2023-08-06T06:14:57;34.84;38.98
79024;DHT22;70306;44.764;37.688;2023-08-06T06:15:58;34.84;38.99
79024;DHT22;70306;44.764;37.688;2023-08-06T06:17:00;34.87;38.95
79024;DHT22;70306;44.764;37.688;2023-08-06T06:18:02;34.93;38.47
79024;DHT22;70306;44.764;37.688;2023-08-06T06:19:03;34.99;37.63
79024;DHT22;70306;44.764;37.688;2023-08-06T06:20:05;34.97;38.57
79024;DHT22;70306;44.764;37.688;2023-08-06T06:21:07;34.97;38.18
79024;DHT22;70306;44.764;37.688;2023-08-06T06:22:09;34.93;38.11
79024;DHT22;70306;44.764;37.688;2023-08-06T06:23:10;34.97;38.44
79024;DHT22;70306;44.764;37.688;2023-08-06T06:24:12;35.10;38.21
79024;DHT22;70306;44.764;37.688;2023-08-06T06:25:14;35.20;38.27
79024;DHT22;70306;44.764;37.688;2023-08-06T06:26:15;35.23;38.10
79024;DHT22;70306;44.764;37.688;2023-08-06T06:33:29;35.26;38.10
79024;DHT22;70306;44.764;37.688;2023-08-06T06:34:30;35.18;38.23
79024;DHT22;70306;44.764;37.688;2023-08-06T06:35:32;35.17;38.20
79024;DHT22;70306;44.764;37.688;2023-08-06T06:36:33;35.20;38.78
79024;DHT22;70306;44.764;37.688;2023-08-06T06:37:35;35.28;37.68
79024;DHT22;70306;44.764;37.688;2023-08-06T06:38:37;35.28;38.29
79024;DHT22;70306;44.764;37.688;2023-08-06T06:39:39;35.34;38.20
79024;DHT22;70306;44.764;37.688;2023-08-06T06:40:40;35.38;38.29
79024;DHT22;70306;44.764;37.688;2023-08-06T06:41:42;35.45;38.34
79024;DHT22;70306;44.764;37.688;2023-08-06T06:42:53;35.44;38.56